createdAt,value
2018-06-16T00:00:14.094Z,0.00
2018-06-16T00:01:14.013Z,0.00
2018-06-16T00:02:13.951Z,0.00
2018-06-16T00:03:13.915Z,0.00
2018-06-16T00:04:14.569Z,0.00
2018-06-16T00:05:13.863Z,0.00
2018-06-16T00:06:13.824Z,0.00
2018-06-16T00:07:13.788Z,0.00
2018-06-16T00:08:13.819Z,0.00
2018-06-16T00:09:13.713Z,0.00
2018-06-16T00:10:13.696Z,0.00
2018-06-16T00:11:13.660Z,0.00
2018-06-16T00:12:13.627Z,0.00
2018-06-16T00:13:13.662Z,0.00
2018-06-16T00:14:13.566Z,0.00
2018-06-16T00:15:13.608Z,0.00
2018-06-16T00:16:13.506Z,0.00
2018-06-16T00:17:13.453Z,0.00
2018-06-16T00:18:13.411Z,0.00
2018-06-16T00:19:13.418Z,0.00
2018-06-16T00:20:13.343Z,0.00
2018-06-16T00:21:13.323Z,0.00
2018-06-16T00:22:13.294Z,0.00
2018-06-16T00:23:13.253Z,0.00
2018-06-16T00:24:13.208Z,0.00
2018-06-16T00:25:13.171Z,0.00
2018-06-16T00:26:13.177Z,0.00
2018-06-16T00:27:13.148Z,0.00
2018-06-16T00:28:13.105Z,0.00
2018-06-16T00:29:13.129Z,0.00
2018-06-16T00:30:13.035Z,0.00
2018-06-16T00:31:13.005Z,0.00
2018-06-16T00:32:12.935Z,0.00
2018-06-16T00:33:12.928Z,0.00
2018-06-16T00:34:12.893Z,0.00
2018-06-16T00:35:12.880Z,0.00
2018-06-16T00:36:12.810Z,0.00
2018-06-16T00:37:12.769Z,0.00
2018-06-16T00:38:12.735Z,0.00
2018-06-16T00:39:12.729Z,0.00
2018-06-16T00:40:12.737Z,0.00
2018-06-16T00:41:12.747Z,0.00
2018-06-16T00:42:12.612Z,0.00
2018-06-16T00:43:12.636Z,0.00
2018-06-16T00:44:12.529Z,0.00
2018-06-16T00:45:12.509Z,0.00
2018-06-16T00:46:12.487Z,0.00
2018-06-16T00:47:12.457Z,0.00
2018-06-16T00:48:12.434Z,0.00
2018-06-16T00:49:12.395Z,0.00
2018-06-16T00:50:12.320Z,0.00
2018-06-16T00:51:12.307Z,0.00
2018-06-16T00:52:12.318Z,0.00
2018-06-16T00:53:12.245Z,0.00
2018-06-16T00:54:12.284Z,0.00
2018-06-16T00:55:12.159Z,0.00
2018-06-16T00:56:12.204Z,0.00
2018-06-16T00:57:12.095Z,0.00
2018-06-16T00:58:12.051Z,0.00
2018-06-16T00:59:12.030Z,0.00
2018-06-16T01:00:12.071Z,0.00
2018-06-16T01:01:11.951Z,0.00
2018-06-16T01:02:11.950Z,0.00
2018-06-16T01:03:11.942Z,0.00
2018-06-16T01:04:11.867Z,0.00
2018-06-16T01:05:11.834Z,0.00
2018-06-16T01:06:11.864Z,0.00
2018-06-16T01:07:11.748Z,0.00
2018-06-16T01:08:11.778Z,0.00
2018-06-16T01:09:11.706Z,0.00
2018-06-16T01:10:11.656Z,0.00
2018-06-16T01:11:11.688Z,0.00
2018-06-16T01:12:11.609Z,0.00
2018-06-16T01:13:11.539Z,0.00
2018-06-16T01:14:11.539Z,0.00
2018-06-16T01:15:11.561Z,0.00
2018-06-16T01:16:11.598Z,0.00
2018-06-16T01:17:11.425Z,0.00
2018-06-16T01:18:11.495Z,0.00
2018-06-16T01:19:11.366Z,0.00
2018-06-16T01:20:11.335Z,0.00
2018-06-16T01:21:11.276Z,0.00
2018-06-16T01:22:11.239Z,0.00
2018-06-16T01:23:11.233Z,0.00
2018-06-16T01:24:11.229Z,0.00
2018-06-16T01:25:11.198Z,0.00
2018-06-16T01:26:11.218Z,0.00
2018-06-16T01:27:11.074Z,0.00
2018-06-16T01:28:11.097Z,0.00
2018-06-16T01:29:11.030Z,0.00
2018-06-16T01:30:10.985Z,0.00
2018-06-16T01:31:10.935Z,0.00
2018-06-16T01:32:10.910Z,0.00
2018-06-16T01:33:10.905Z,0.00
2018-06-16T01:34:10.913Z,0.00
2018-06-16T01:35:11.594Z,0.00
2018-06-16T01:36:10.782Z,0.00
2018-06-16T01:37:10.801Z,0.00
2018-06-16T01:38:10.715Z,0.00
2018-06-16T01:39:10.702Z,0.00
2018-06-16T01:40:10.621Z,0.00
2018-06-16T01:41:10.658Z,0.00
2018-06-16T01:42:10.631Z,0.00
2018-06-16T01:43:10.652Z,0.00
2018-06-16T01:44:10.508Z,0.00
2018-06-16T01:45:10.497Z,0.00
2018-06-16T01:46:10.464Z,0.00
2018-06-16T01:47:10.401Z,0.00
2018-06-16T01:48:10.387Z,0.00
2018-06-16T01:49:10.413Z,0.00
2018-06-16T01:50:10.299Z,0.00
2018-06-16T01:51:11.105Z,0.00
2018-06-16T01:52:10.400Z,0.00
2018-06-16T01:53:10.196Z,0.00
2018-06-16T01:54:10.260Z,0.00
2018-06-16T01:55:10.177Z,0.00
2018-06-16T01:56:10.127Z,0.00
2018-06-16T01:57:10.152Z,0.00
2018-06-16T01:58:10.046Z,0.00
2018-06-16T01:59:10.078Z,0.00
2018-06-16T02:00:09.972Z,0.00
2018-06-16T02:01:09.926Z,0.00
2018-06-16T02:02:09.986Z,0.00
2018-06-16T02:03:10.604Z,0.00
2018-06-16T02:04:09.833Z,0.00
2018-06-16T02:05:09.781Z,0.00
2018-06-16T02:06:09.802Z,0.00
2018-06-16T02:07:09.795Z,0.00
2018-06-16T02:08:09.741Z,0.00
2018-06-16T02:09:09.657Z,0.00
2018-06-16T02:10:09.607Z,0.00
2018-06-16T02:11:12.191Z,0.00
2018-06-16T02:12:09.657Z,0.00
2018-06-16T02:13:09.534Z,0.00
2018-06-16T02:14:09.550Z,0.00
2018-06-16T02:15:09.456Z,0.00
2018-06-16T02:16:09.413Z,0.00
2018-06-16T02:17:09.408Z,0.00
2018-06-16T02:18:09.382Z,0.00
2018-06-16T02:19:09.316Z,0.00
2018-06-16T02:20:09.320Z,0.00
2018-06-16T02:21:09.243Z,0.00
2018-06-16T02:22:09.225Z,0.00
2018-06-16T02:23:09.182Z,0.00
2018-06-16T02:24:09.164Z,0.00
2018-06-16T02:25:09.117Z,0.00
2018-06-16T02:26:09.109Z,0.00
2018-06-16T02:27:09.049Z,0.00
2018-06-16T02:28:09.058Z,0.00
2018-06-16T02:29:09.009Z,0.00
2018-06-16T02:30:08.932Z,0.00
2018-06-16T02:31:08.947Z,0.00
2018-06-16T02:32:08.896Z,0.00
2018-06-16T02:33:08.843Z,0.00
2018-06-16T02:34:08.874Z,0.00
2018-06-16T02:35:08.759Z,0.00
2018-06-16T02:36:08.739Z,0.00
2018-06-16T02:37:08.715Z,0.00
2018-06-16T02:38:08.651Z,0.00
2018-06-16T02:39:08.673Z,0.00
2018-06-16T02:40:08.606Z,0.00
2018-06-16T02:41:08.583Z,0.00
2018-06-16T02:42:08.569Z,0.00
2018-06-16T02:43:08.560Z,0.00
2018-06-16T02:44:08.519Z,0.00
2018-06-16T02:45:08.434Z,0.00
2018-06-16T02:46:08.398Z,0.00
2018-06-16T02:47:08.360Z,0.00
2018-06-16T02:48:08.332Z,0.00
2018-06-16T02:49:08.385Z,0.00
2018-06-16T02:50:08.280Z,0.00
2018-06-16T02:51:08.306Z,0.00
2018-06-16T02:52:08.256Z,0.00
2018-06-16T02:53:08.235Z,0.00
2018-06-16T02:54:08.145Z,0.00
2018-06-16T02:55:08.091Z,0.00
2018-06-16T02:56:08.111Z,0.00
2018-06-16T02:57:08.052Z,0.00
2018-06-16T02:58:08.016Z,5.63
2018-06-16T02:59:07.964Z,5.63
2018-06-16T03:00:08.016Z,5.63
2018-06-16T03:01:07.978Z,5.63
2018-06-16T03:02:07.862Z,5.63
2018-06-16T03:03:07.866Z,5.63
2018-06-16T03:04:07.868Z,5.63
2018-06-16T03:05:07.796Z,5.63
2018-06-16T03:06:07.726Z,5.63
2018-06-16T03:07:07.732Z,5.63
2018-06-16T03:08:07.648Z,5.63
2018-06-16T03:09:07.653Z,5.63
2018-06-16T03:10:07.606Z,11.25
2018-06-16T03:11:07.543Z,11.25
2018-06-16T03:12:07.532Z,11.25
2018-06-16T03:13:07.512Z,11.25
2018-06-16T03:14:07.500Z,11.25
2018-06-16T03:15:07.450Z,11.25
2018-06-16T03:16:07.395Z,11.25
2018-06-16T03:17:07.340Z,11.25
2018-06-16T03:18:07.304Z,11.25
2018-06-16T03:19:07.325Z,16.88
2018-06-16T03:20:07.214Z,16.88
2018-06-16T03:21:07.218Z,16.88
2018-06-16T03:22:07.177Z,16.88
2018-06-16T03:23:07.151Z,16.88
2018-06-16T03:24:07.136Z,16.88
2018-06-16T03:25:07.087Z,16.88
2018-06-16T03:26:07.095Z,22.50
2018-06-16T03:27:07.014Z,22.50
2018-06-16T03:28:07.004Z,22.50
2018-06-16T03:29:06.971Z,22.50
2018-06-16T03:30:06.909Z,22.50
2018-06-16T03:31:06.847Z,28.13
2018-06-16T03:33:06.828Z,28.13
2018-06-16T03:34:06.775Z,28.13
2018-06-16T03:35:06.713Z,28.13
2018-06-16T03:36:06.682Z,33.75
2018-06-16T03:37:06.660Z,33.75
2018-06-16T03:38:06.640Z,33.75
2018-06-16T03:39:06.649Z,33.75
2018-06-16T03:40:06.537Z,33.75
2018-06-16T03:41:06.559Z,39.38
2018-06-16T03:42:06.598Z,39.38
2018-06-16T03:43:06.486Z,39.38
2018-06-16T03:44:06.448Z,45.00
2018-06-16T03:45:06.387Z,45.00
2018-06-16T03:46:06.372Z,45.00
2018-06-16T03:47:06.420Z,45.00
2018-06-16T03:48:06.289Z,50.63
2018-06-16T03:49:06.278Z,50.63
2018-06-16T03:50:06.207Z,56.25
2018-06-16T03:51:06.184Z,56.25
2018-06-16T03:52:06.143Z,61.88
2018-06-16T03:53:06.193Z,61.88
2018-06-16T03:54:06.063Z,61.88
2018-06-16T03:55:06.046Z,67.50
2018-06-16T03:56:06.013Z,67.50
2018-06-16T03:57:05.979Z,67.50
2018-06-16T03:58:05.957Z,67.50
2018-06-16T03:59:05.893Z,67.50
2018-06-16T04:00:05.888Z,73.13
2018-06-16T04:01:05.833Z,73.13
2018-06-16T04:02:05.818Z,73.13
2018-06-16T04:03:05.765Z,78.75
2018-06-16T04:04:05.736Z,78.75
2018-06-16T04:05:05.762Z,84.38
2018-06-16T04:06:05.693Z,84.38
2018-06-16T04:07:05.657Z,84.38
2018-06-16T04:08:05.607Z,90.00
2018-06-16T04:09:05.609Z,90.00
2018-06-16T04:10:05.523Z,95.63
2018-06-16T04:11:05.540Z,95.63
2018-06-16T04:12:05.476Z,101.25
2018-06-16T04:13:05.423Z,101.25
2018-06-16T04:14:05.397Z,101.25
2018-06-16T04:15:05.419Z,106.88
2018-06-16T04:16:05.335Z,106.88
2018-06-16T04:17:05.323Z,112.50
2018-06-16T04:18:05.317Z,112.50
2018-06-16T04:19:05.275Z,112.50
2018-06-16T04:20:05.190Z,112.50
2018-06-16T04:21:05.147Z,112.50
2018-06-16T04:22:05.135Z,118.13
2018-06-16T04:23:05.143Z,118.13
2018-06-16T04:24:05.217Z,123.75
2018-06-16T04:25:05.648Z,123.75
2018-06-16T04:26:05.011Z,129.38
2018-06-16T04:27:04.972Z,129.38
2018-06-16T04:28:04.909Z,135.00
2018-06-16T04:29:04.899Z,140.63
2018-06-16T04:30:04.899Z,146.25
2018-06-16T04:31:04.836Z,151.88
2018-06-16T04:32:04.827Z,157.50
2018-06-16T04:33:04.757Z,157.50
2018-06-16T04:34:04.727Z,163.13
2018-06-16T04:35:04.785Z,163.13
2018-06-16T04:36:04.659Z,168.75
2018-06-16T04:37:04.620Z,168.75
2018-06-16T04:38:04.568Z,168.75
2018-06-16T04:39:04.590Z,174.38
2018-06-16T04:40:04.518Z,174.38
2018-06-16T04:41:04.481Z,180.00
2018-06-16T04:42:04.476Z,180.00
2018-06-16T04:43:04.434Z,185.63
2018-06-16T04:44:04.379Z,191.25
2018-06-16T04:45:05.158Z,191.25
2018-06-16T04:46:04.314Z,196.88
2018-06-16T04:47:04.290Z,202.50
2018-06-16T04:48:04.327Z,202.50
2018-06-16T04:49:04.221Z,208.13
2018-06-16T04:50:04.293Z,213.75
2018-06-16T04:51:04.141Z,213.75
2018-06-16T04:52:04.156Z,219.38
2018-06-16T04:53:04.148Z,219.38
2018-06-16T04:54:04.075Z,219.38
2018-06-16T04:55:04.082Z,225.00
2018-06-16T04:56:04.130Z,230.63
2018-06-16T04:57:04.011Z,230.63
2018-06-16T04:58:03.976Z,236.25
2018-06-16T04:59:03.906Z,236.25
2018-06-16T05:00:03.940Z,236.25
2018-06-16T05:01:03.877Z,241.88
2018-06-16T05:02:03.807Z,241.88
2018-06-16T05:03:03.779Z,241.88
2018-06-16T05:04:03.739Z,247.50
2018-06-16T05:05:03.703Z,247.50
2018-06-16T05:06:03.739Z,253.13
2018-06-16T05:07:03.636Z,253.13
2018-06-16T05:08:03.635Z,258.75
2018-06-16T05:09:03.625Z,258.75
2018-06-16T05:10:03.518Z,264.38
2018-06-16T05:11:03.604Z,264.38
2018-06-16T05:12:03.566Z,264.38
2018-06-16T05:13:03.484Z,270.00
2018-06-16T05:14:03.477Z,270.00
2018-06-16T05:15:03.355Z,270.00
2018-06-16T05:16:03.393Z,270.00
2018-06-16T05:17:03.441Z,281.25
2018-06-16T05:18:03.304Z,275.63
2018-06-16T05:19:03.442Z,275.63
2018-06-16T05:20:03.268Z,275.63
2018-06-16T05:21:03.367Z,281.25
2018-06-16T05:22:03.133Z,281.25
2018-06-16T05:23:03.087Z,292.50
2018-06-16T05:24:03.188Z,292.50
2018-06-16T05:25:03.026Z,292.50
2018-06-16T05:26:03.075Z,292.50
2018-06-16T05:27:03.057Z,292.50
2018-06-16T05:28:02.946Z,298.13
2018-06-16T05:29:02.995Z,298.13
2018-06-16T05:30:02.909Z,303.75
2018-06-16T05:31:02.862Z,303.75
2018-06-16T05:32:02.836Z,309.38
2018-06-16T05:33:02.801Z,315.00
2018-06-16T05:34:02.862Z,320.63
2018-06-16T05:35:02.702Z,320.63
2018-06-16T05:36:02.790Z,326.25
2018-06-16T05:37:02.630Z,326.25
2018-06-16T05:38:02.647Z,331.88
2018-06-16T05:39:02.663Z,331.88
2018-06-16T05:40:02.528Z,337.50
2018-06-16T05:41:02.575Z,348.75
2018-06-16T05:42:02.501Z,348.75
2018-06-16T05:43:02.455Z,360.00
2018-06-16T05:44:02.473Z,360.00
2018-06-16T05:45:02.372Z,371.25
2018-06-16T05:46:02.342Z,382.50
2018-06-16T05:47:02.346Z,376.88
2018-06-16T05:48:02.271Z,382.50
2018-06-16T05:49:02.268Z,388.13
2018-06-16T05:50:02.203Z,393.75
2018-06-16T05:51:02.202Z,405.00
2018-06-16T05:52:02.155Z,410.63
2018-06-16T05:53:02.106Z,427.50
2018-06-16T05:54:02.906Z,427.50
2018-06-16T05:55:02.066Z,433.13
2018-06-16T05:56:02.029Z,438.75
2018-06-16T05:57:02.024Z,444.38
2018-06-16T05:58:01.938Z,450.00
2018-06-16T05:59:01.913Z,461.25
2018-06-16T06:00:01.948Z,472.50
2018-06-16T06:01:01.860Z,483.75
2018-06-16T06:02:01.950Z,489.38
2018-06-16T06:03:01.883Z,500.63
2018-06-16T06:04:01.823Z,506.25
2018-06-16T06:05:01.829Z,511.88
2018-06-16T06:06:01.694Z,517.50
2018-06-16T06:07:01.775Z,523.13
2018-06-16T06:08:01.695Z,523.13
2018-06-16T06:09:01.607Z,528.75
2018-06-16T06:10:01.651Z,534.38
2018-06-16T06:11:01.582Z,540.00
2018-06-16T06:12:01.533Z,540.00
2018-06-16T06:13:01.495Z,551.25
2018-06-16T06:14:01.455Z,562.50
2018-06-16T06:15:01.432Z,568.13
2018-06-16T06:16:01.399Z,573.75
2018-06-16T06:17:01.398Z,579.38
2018-06-16T06:18:01.308Z,579.38
2018-06-16T06:19:01.343Z,579.38
2018-06-16T06:20:01.283Z,590.63
2018-06-16T06:21:01.279Z,596.25
2018-06-16T06:22:01.233Z,607.50
2018-06-16T06:23:01.200Z,618.75
2018-06-16T06:24:01.136Z,630.00
2018-06-16T06:25:01.156Z,641.25
2018-06-16T06:26:01.187Z,641.25
2018-06-16T06:27:01.027Z,652.50
2018-06-16T06:28:01.024Z,658.13
2018-06-16T06:29:01.031Z,669.38
2018-06-16T06:30:01.088Z,686.25
2018-06-16T06:31:00.974Z,697.50
2018-06-16T06:32:00.896Z,714.38
2018-06-16T06:33:00.865Z,731.25
2018-06-16T06:34:00.865Z,748.13
2018-06-16T06:35:00.826Z,759.38
2018-06-16T06:36:00.776Z,770.63
2018-06-16T06:37:00.803Z,781.88
2018-06-16T06:38:00.727Z,798.75
2018-06-16T06:39:02.203Z,821.25
2018-06-16T06:40:00.744Z,838.13
2018-06-16T06:41:00.642Z,866.25
2018-06-16T06:42:00.617Z,883.13
2018-06-16T06:43:00.641Z,894.38
2018-06-16T06:44:00.604Z,911.25
2018-06-16T06:45:00.609Z,928.13
2018-06-16T06:46:00.520Z,945.00
2018-06-16T06:47:00.554Z,961.88
2018-06-16T06:48:00.489Z,978.75
2018-06-16T06:49:00.581Z,995.63
2018-06-16T06:50:00.434Z,1012.50
2018-06-16T06:51:00.430Z,1023.75
2018-06-16T06:52:00.335Z,1035.00
2018-06-16T06:53:00.568Z,1046.25
2018-06-16T06:54:00.261Z,1051.88
2018-06-16T06:55:00.225Z,1074.38
2018-06-16T06:56:00.307Z,1080.00
2018-06-16T06:57:00.219Z,1085.63
2018-06-16T06:58:00.270Z,1085.63
2018-06-16T06:59:00.266Z,1091.25
2018-06-16T07:00:00.278Z,1096.88
2018-06-16T07:01:00.146Z,1091.25
2018-06-16T07:02:00.127Z,1096.88
2018-06-16T07:02:59.935Z,1096.88
2018-06-16T07:03:59.991Z,1108.13
2018-06-16T07:05:00.705Z,1113.75
2018-06-16T07:05:59.944Z,1130.63
2018-06-16T07:06:59.944Z,1141.88
2018-06-16T07:07:59.877Z,1158.75
2018-06-16T07:08:59.833Z,1164.38
2018-06-16T07:09:59.788Z,1175.63
2018-06-16T07:11:00.250Z,1181.25
2018-06-16T07:11:59.738Z,1186.88
2018-06-16T07:13:54.923Z,1198.13
2018-06-16T07:14:54.760Z,1192.50
2018-06-16T07:16:49.840Z,1203.75
2018-06-16T07:17:49.414Z,1215.00
2018-06-16T07:19:43.919Z,1237.50
2018-06-16T07:20:43.570Z,1243.13
2018-06-16T07:23:38.205Z,1271.25
2018-06-16T07:25:31.592Z,1327.50
2018-06-16T07:26:31.392Z,1355.63
2018-06-16T07:28:25.222Z,1395.00
2018-06-16T07:29:24.906Z,1406.25
2018-06-16T07:31:21.308Z,1440.00
2018-06-16T07:34:17.034Z,1507.50
2018-06-16T07:35:16.846Z,1535.63
2018-06-16T07:37:13.837Z,1569.38
2018-06-16T07:38:13.692Z,1603.13
2018-06-16T07:40:06.907Z,1665.00
2018-06-16T07:41:06.601Z,1698.75
2018-06-16T07:42:06.603Z,1783.13
2018-06-16T07:43:06.476Z,1985.63
2018-06-16T07:44:06.370Z,2306.25
2018-06-16T07:45:06.470Z,3127.50
2018-06-16T07:46:06.507Z,2041.88
2018-06-16T07:47:06.268Z,2030.63
2018-06-16T07:48:06.481Z,2154.38
2018-06-16T07:49:07.445Z,1951.88
2018-06-16T07:50:06.499Z,1895.63
2018-06-16T07:51:04.425Z,1861.88
2018-06-16T07:52:04.109Z,1839.38
2018-06-16T07:53:04.108Z,1800.00
2018-06-16T07:54:04.064Z,1766.25
2018-06-16T07:55:03.993Z,1743.75
2018-06-16T07:56:04.018Z,1715.63
2018-06-16T07:57:04.458Z,1710.00
2018-06-16T07:58:04.154Z,1715.63
2018-06-16T07:59:03.958Z,1732.50
2018-06-16T08:00:03.891Z,1766.25
2018-06-16T08:01:03.810Z,1800.00
2018-06-16T08:02:03.798Z,1822.50
2018-06-16T08:03:03.868Z,1839.38
2018-06-16T08:04:03.812Z,1856.25
2018-06-16T08:05:03.724Z,1867.50
2018-06-16T08:06:03.837Z,1867.50
2018-06-16T08:07:03.717Z,1873.13
2018-06-16T08:08:03.778Z,1890.00
2018-06-16T08:09:03.581Z,1906.88
2018-06-16T08:10:04.533Z,1946.25
2018-06-16T08:11:03.611Z,1963.13
2018-06-16T08:12:03.581Z,1996.88
2018-06-16T08:13:03.568Z,2025.00
2018-06-16T08:14:03.545Z,2058.75
2018-06-16T08:15:03.476Z,2103.75
2018-06-16T08:16:03.878Z,2154.38
2018-06-16T08:17:05.250Z,2227.50
2018-06-16T08:18:03.510Z,2345.63
2018-06-16T08:19:04.238Z,2413.13
2018-06-16T08:20:03.427Z,2446.88
2018-06-16T08:21:03.344Z,2430.00
2018-06-16T08:22:03.362Z,2441.25
2018-06-16T08:23:03.328Z,2458.13
2018-06-16T08:24:03.299Z,2491.88
2018-06-16T08:25:03.295Z,2463.75
2018-06-16T08:26:03.266Z,2475.00
2018-06-16T08:27:03.271Z,2486.25
2018-06-16T08:28:03.122Z,2565.00
2018-06-16T08:29:03.131Z,2891.25
2018-06-16T08:30:03.195Z,3915.00
2018-06-16T08:31:03.124Z,3279.38
2018-06-16T08:32:03.139Z,3054.38
2018-06-16T08:33:03.135Z,2823.75
2018-06-16T08:34:03.018Z,2615.63
2018-06-16T08:35:03.097Z,2491.88
2018-06-16T08:36:02.946Z,2368.13
2018-06-16T08:37:02.929Z,2311.88
2018-06-16T08:38:04.871Z,2250.00
2018-06-16T08:39:02.859Z,2199.38
2018-06-16T08:40:04.394Z,2160.00
2018-06-16T08:41:02.876Z,2109.38
2018-06-16T08:42:02.837Z,2070.00
2018-06-16T08:43:02.758Z,2041.88
2018-06-16T08:44:02.761Z,2013.75
2018-06-16T08:45:02.772Z,1985.63
2018-06-16T08:46:02.718Z,1968.75
2018-06-16T08:47:02.702Z,1968.75
2018-06-16T08:48:02.623Z,1968.75
2018-06-16T08:49:02.636Z,1974.38
2018-06-16T08:50:02.596Z,1996.88
2018-06-16T08:51:02.578Z,2008.13
2018-06-16T08:52:02.533Z,2013.75
2018-06-16T08:53:02.583Z,2013.75
2018-06-16T08:54:02.545Z,2019.38
2018-06-16T08:55:02.566Z,2013.75
2018-06-16T08:58:07.344Z,2053.13
2018-06-16T08:59:04.661Z,2086.88
2018-06-16T09:00:04.745Z,2126.25
2018-06-16T09:01:04.408Z,2160.00
2018-06-16T09:02:04.578Z,2210.63
2018-06-16T09:03:04.685Z,2261.25
2018-06-16T09:04:03.960Z,2295.00
2018-06-16T09:05:04.775Z,2323.13
2018-06-16T09:06:06.247Z,2351.25
2018-06-16T09:07:06.007Z,2368.13
2018-06-16T09:09:32.091Z,2424.38
2018-06-16T09:10:32.489Z,2435.63
2018-06-16T09:11:32.036Z,2446.88
2018-06-16T09:12:32.728Z,2469.38
2018-06-16T09:13:32.173Z,2508.75
2018-06-16T09:14:30.674Z,2531.25
2018-06-16T09:15:30.537Z,2581.88
2018-06-16T09:16:32.034Z,2581.88
2018-06-16T09:17:32.061Z,2587.50
2018-06-16T09:18:29.776Z,2508.75
2018-06-16T09:20:25.413Z,2424.38
2018-06-16T09:21:25.273Z,2396.25
2018-06-16T09:23:18.480Z,2340.00
2018-06-16T09:24:18.311Z,2356.88
2018-06-16T09:26:11.534Z,2435.63
2018-06-16T09:27:11.382Z,2463.75
2018-06-16T09:29:04.401Z,2531.25
2018-06-16T09:30:02.746Z,2520.00
2018-06-16T09:31:57.586Z,2531.25
2018-06-16T09:32:57.440Z,2570.63
2018-06-16T09:34:50.644Z,2604.38
2018-06-16T09:35:49.981Z,2581.88
2018-06-16T09:37:43.759Z,2565.00
2018-06-16T09:38:41.847Z,2542.50
2018-06-16T09:40:37.082Z,2385.00
2018-06-16T09:41:35.477Z,2328.75
2018-06-16T09:43:29.872Z,2210.63
2018-06-16T09:44:28.072Z,2171.25
2018-06-16T09:45:28.100Z,2148.75
2018-06-16T09:46:27.936Z,2148.75
2018-06-16T09:47:29.607Z,2143.13
2018-06-16T09:48:29.653Z,2143.13
2018-06-16T09:49:29.723Z,2148.75
2018-06-16T09:50:29.534Z,2160.00
2018-06-16T09:51:27.779Z,2199.38
2018-06-16T09:52:29.525Z,2199.38
2018-06-16T11:16:16.023Z,1721.25
2018-06-16T11:17:06.432Z,1771.88
2018-06-16T11:18:59.967Z,1890.00
2018-06-16T11:19:59.500Z,1946.25
2018-06-16T11:21:54.475Z,2053.13
2018-06-16T11:22:54.385Z,2092.50
2018-06-16T11:24:47.508Z,2092.50
2018-06-16T11:25:47.090Z,2086.88
2018-06-16T11:27:40.534Z,2041.88
2018-06-16T11:30:34.168Z,2064.38
2018-06-16T11:31:33.632Z,2086.88
2018-06-16T11:33:28.792Z,2092.50
2018-06-16T11:34:28.266Z,2103.75
2018-06-16T11:36:21.748Z,2143.13
2018-06-16T11:37:21.315Z,2188.13
2018-06-16T11:39:15.345Z,2278.13
2018-06-16T11:40:14.928Z,2289.38
2018-06-16T11:42:09.928Z,2345.63
2018-06-16T11:43:09.475Z,2390.63
2018-06-16T11:45:03.019Z,2508.75
2018-06-16T11:46:02.564Z,2576.25
2018-06-16T11:47:56.548Z,2649.38
2018-06-16T11:48:56.095Z,2694.38
2018-06-16T11:50:51.361Z,2761.88
2018-06-16T11:51:50.692Z,2829.38
2018-06-16T11:53:44.736Z,2970.00
2018-06-16T11:54:44.246Z,2925.00
2018-06-16T11:56:38.170Z,2992.50
2018-06-16T11:57:37.406Z,2930.63
2018-06-16T11:59:30.879Z,2964.38
2018-06-16T12:00:30.397Z,3003.75
2018-06-16T12:02:25.549Z,3076.88
2018-06-16T12:03:25.370Z,3144.38
2018-06-16T12:05:18.956Z,3442.50
2018-06-16T12:06:19.024Z,3228.75
2018-06-16T12:08:12.111Z,3183.75
2018-06-16T12:09:11.620Z,3217.50
2018-06-16T12:11:05.138Z,3172.50
2018-06-16T12:12:04.653Z,3138.75
2018-06-16T12:13:58.179Z,3127.50
2018-06-16T12:14:58.483Z,3093.75
2018-06-16T12:16:52.683Z,3054.38
2018-06-16T12:17:52.319Z,3060.00
2018-06-16T12:19:47.352Z,3138.75
2018-06-16T12:20:46.909Z,3183.75
2018-06-16T12:22:41.963Z,2925.00
2018-06-16T12:23:41.447Z,2801.25
2018-06-16T12:25:36.474Z,2829.38
2018-06-16T12:26:36.431Z,2908.13
2018-06-16T12:28:31.172Z,3110.63
2018-06-16T12:29:30.643Z,3150.00
2018-06-16T12:31:24.723Z,3127.50
2018-06-16T12:32:24.632Z,3195.00
2018-06-16T12:34:17.705Z,3296.25
2018-06-16T12:35:17.274Z,3369.38
2018-06-16T12:37:12.328Z,3476.25
2018-06-16T12:38:12.254Z,3802.50
2018-06-16T12:40:05.334Z,3504.38
2018-06-16T12:41:04.955Z,3802.50
2018-06-16T12:42:58.498Z,3538.13
2018-06-16T12:43:58.043Z,3330.00
2018-06-16T12:45:51.481Z,2998.13
2018-06-16T12:46:51.043Z,2891.25
2018-06-16T12:48:44.556Z,2801.25
2018-06-16T12:49:44.151Z,2745.00
2018-06-16T12:51:38.256Z,2660.63
2018-06-16T12:52:37.673Z,2593.13
2018-06-16T12:54:31.698Z,2570.63
2018-06-16T12:55:31.294Z,2559.38
2018-06-16T12:57:24.790Z,2548.13
2018-06-16T12:58:24.258Z,2542.50
2018-06-16T13:00:18.354Z,2553.75
2018-06-16T13:01:17.911Z,2548.13
2018-06-16T13:03:11.811Z,2559.38
2018-06-16T13:04:11.466Z,2593.13
2018-06-16T13:06:05.455Z,2643.75
2018-06-16T13:07:05.006Z,2700.00
2018-06-16T13:09:00.048Z,2756.25
2018-06-16T13:09:59.616Z,2823.75
2018-06-16T13:11:53.629Z,2891.25
2018-06-16T13:12:53.579Z,2829.38
2018-06-16T13:14:48.149Z,2694.38
2018-06-16T13:15:47.788Z,2683.13
2018-06-16T13:17:41.298Z,2638.13
2018-06-16T13:18:40.829Z,2542.50
2018-06-16T13:20:34.296Z,2475.00
2018-06-16T13:21:33.897Z,2480.63
2018-06-16T13:23:27.410Z,2525.63
2018-06-16T13:24:26.958Z,2503.13
2018-06-16T13:26:20.983Z,2475.00
2018-06-16T13:27:20.996Z,2446.88
2018-06-16T13:29:14.094Z,2351.25
2018-06-16T13:30:13.592Z,2323.13
2018-06-16T13:32:07.052Z,2295.00
2018-06-16T13:33:06.630Z,2300.63
2018-06-16T13:35:00.656Z,2385.00
2018-06-16T13:36:00.509Z,2446.88
2018-06-16T13:37:55.083Z,2649.38
2018-06-16T13:38:54.692Z,2896.88
2018-06-16T13:40:48.627Z,3155.63
2018-06-16T13:41:48.301Z,3285.00
2018-06-16T13:43:41.683Z,4455.00
2018-06-16T13:44:41.313Z,3459.38
2018-06-16T13:46:38.863Z,3268.13
2018-06-16T13:47:38.793Z,3200.63
2018-06-16T13:49:33.301Z,3397.50
2018-06-16T13:50:32.983Z,3706.88
2018-06-16T13:52:26.986Z,4005.00
2018-06-16T13:53:26.880Z,4280.63
2018-06-16T13:55:20.003Z,4415.63
2018-06-16T13:56:19.621Z,3802.50
2018-06-16T13:58:13.050Z,3262.50
2018-06-16T13:59:12.996Z,3375.00
2018-06-16T14:01:06.591Z,3217.50
2018-06-16T14:02:06.556Z,3031.88
2018-06-16T14:04:00.176Z,2806.88
2018-06-16T14:04:59.733Z,2840.63
2018-06-16T14:06:53.757Z,2469.38
2018-06-16T14:07:53.340Z,2356.88
2018-06-16T14:09:47.426Z,2041.88
2018-06-16T14:10:46.866Z,1890.00
2018-06-16T14:12:40.906Z,1755.00
2018-06-16T14:13:40.462Z,1715.63
2018-06-16T14:15:35.515Z,1698.75
2018-06-16T14:16:35.064Z,1726.88
2018-06-16T14:18:28.520Z,1873.13
2018-06-16T14:19:28.846Z,2210.63
2018-06-16T14:21:22.130Z,4151.25
2018-06-16T14:22:21.698Z,3937.50
2018-06-16T14:24:15.170Z,4156.88
2018-06-16T14:25:14.759Z,2891.25
2018-06-16T14:27:08.261Z,2649.38
2018-06-16T14:28:07.808Z,2424.38
2018-06-16T14:30:01.798Z,2126.25
2018-06-16T14:31:01.413Z,2120.63
2018-06-16T14:32:54.863Z,4128.75
2018-06-16T14:33:54.431Z,4134.38
2018-06-16T14:35:48.439Z,4021.88
2018-06-16T14:36:48.010Z,4100.63
2018-06-16T14:38:41.499Z,4106.25
2018-06-16T14:39:41.090Z,4055.63
2018-06-16T14:41:35.034Z,4522.50
2018-06-16T14:42:34.650Z,4421.25
2018-06-16T14:44:28.589Z,3633.75
2018-06-16T14:45:28.895Z,3746.25
2018-06-16T14:47:21.747Z,3706.88
2018-06-16T14:48:21.235Z,3841.88
2018-06-16T14:50:15.268Z,4185.00
2018-06-16T14:51:14.872Z,3318.75
2018-06-16T14:53:08.320Z,3465.00
2018-06-16T14:54:07.883Z,3678.75
2018-06-16T14:56:01.833Z,3358.13
2018-06-16T14:57:01.769Z,3459.38
2018-06-16T14:58:54.910Z,2520.00
2018-06-16T14:59:54.881Z,2520.00
2018-06-16T15:01:49.708Z,2424.38
2018-06-16T15:02:49.419Z,2278.13
2018-06-16T15:04:44.112Z,2649.38
2018-06-16T15:05:43.674Z,2255.63
2018-06-16T15:07:37.727Z,2165.63
2018-06-16T15:08:37.328Z,2036.25
2018-06-16T15:10:32.324Z,2334.38
2018-06-16T15:11:31.853Z,2283.75
2018-06-16T15:13:25.847Z,2559.38
2018-06-16T15:14:25.414Z,2874.38
2018-06-16T15:16:20.375Z,2317.50
2018-06-16T15:17:19.955Z,2266.88
2018-06-16T15:19:13.572Z,2345.63
2018-06-16T15:20:13.051Z,2351.25
2018-06-16T15:22:07.072Z,2210.63
2018-06-16T15:23:06.629Z,2171.25
2018-06-16T15:25:01.521Z,2115.00
2018-06-16T15:26:01.240Z,2317.50
2018-06-16T15:27:54.649Z,1985.63
2018-06-16T15:28:54.196Z,2002.50
2018-06-16T15:30:47.756Z,1991.25
2018-06-16T15:31:47.363Z,1951.88
2018-06-16T15:33:40.760Z,1878.75
2018-06-16T15:34:40.407Z,1890.00
2018-06-16T15:36:34.895Z,1884.38
2018-06-16T15:37:33.882Z,1912.50
2018-06-16T15:39:28.791Z,2013.75